Time;durP1;ratioP1;P1;durP2;ratioP2;P2;SDS_P1;SDS_P2;PMS_P1;PMS_P2;Temp;Humidity;BMP_temperature;BMP_pressure;BME280_temperature;BME280_humidity;BME280_pressure;Samples;Min_cycle;Max_cycle;Signal;HPM_P1;HPM_P2
2022/07/31 00:01:50;;;;;;;6.03;4.00;;;18.70;99.90;;;;;;4994728;28;20058;-78
2022/07/31 00:04:16;;;;;;;5.15;4.30;;;18.70;99.90;;;;;;5020668;28;20053;-78
2022/07/31 00:06:43;;;;;;;7.03;4.43;;;18.60;99.90;;;;;;5005654;28;20141;-78
2022/07/31 00:09:09;;;;;;;6.25;5.22;;;18.60;99.90;;;;;;5011770;28;20512;-78
2022/07/31 00:11:35;;;;;;;6.93;4.47;;;18.60;99.90;;;;;;5009832;28;20080;-78
2022/07/31 00:14:01;;;;;;;5.80;4.28;;;18.50;99.90;;;;;;5005757;28;20076;-78
2022/07/31 00:16:27;;;;;;;6.82;5.13;;;18.60;99.90;;;;;;4999026;28;21026;-78
2022/07/31 00:18:56;;;;;;;7.05;4.95;;;18.50;99.90;;;;;;5012626;28;20568;-78
2022/07/31 00:21:21;;;;;;;5.80;3.95;;;18.50;99.90;;;;;;4982187;28;20129;-78
2022/07/31 00:23:47;;;;;;;5.60;4.50;;;18.50;99.90;;;;;;4999690;28;20568;-78
2022/07/31 00:26:13;;;;;;;6.40;4.20;;;18.50;99.90;;;;;;4983931;28;20041;-78
2022/07/31 00:28:39;;;;;;;5.78;4.10;;;18.50;99.90;;;;;;4991779;28;20037;-77
2022/07/31 00:31:04;;;;;;;6.07;4.10;;;18.40;99.90;;;;;;4977808;28;20496;-77
2022/07/31 00:33:30;;;;;;;5.88;4.63;;;18.40;99.90;;;;;;5024125;28;20053;-76
2022/07/31 00:35:56;;;;;;;6.78;5.07;;;18.30;99.90;;;;;;5000557;28;20439;-76
2022/07/31 00:38:23;;;;;;;5.90;4.10;;;18.30;99.90;;;;;;4996362;28;20072;-78
2022/07/31 00:40:49;;;;;;;4.22;3.83;;;18.30;99.90;;;;;;4987553;28;20120;-77
2022/07/31 00:43:17;;;;;;;5.40;4.53;;;18.20;99.90;;;;;;5007438;28;20642;-77
2022/07/31 00:45:43;;;;;;;6.13;4.45;;;18.20;99.90;;;;;;5000541;28;20345;-78
2022/07/31 00:48:09;;;;;;;5.20;3.80;;;18.20;99.90;;;;;;4999960;28;20033;-78
2022/07/31 00:50:35;;;;;;;7.32;4.40;;;18.20;99.90;;;;;;4998596;28;20594;-77
2022/07/31 00:53:01;;;;;;;4.70;3.78;;;18.10;99.90;;;;;;4999711;28;20079;-79
2022/07/31 00:55:30;;;;;;;6.85;4.00;;;18.10;99.90;;;;;;5009001;28;20038;-79
2022/07/31 00:57:56;;;;;;;5.60;4.50;;;18.10;99.90;;;;;;5007803;28;20053;-79
2022/07/31 01:00:22;;;;;;;6.90;3.90;;;18.10;99.90;;;;;;5020399;28;20388;-79
2022/07/31 01:02:51;;;;;;;4.40;3.70;;;18.10;99.90;;;;;;4999802;28;20050;-79
2022/07/31 01:05:17;;;;;;;5.38;3.80;;;18.10;99.90;;;;;;4990595;28;20450;-79
2022/07/31 01:07:45;;;;;;;6.53;4.18;;;18.10;99.90;;;;;;5002820;28;20485;-79
2022/07/31 01:10:15;;;;;;;5.70;4.10;;;18.10;99.90;;;;;;5001589;28;20124;-79
2022/07/31 01:12:52;;;;;;;7.40;3.97;;;18.10;99.90;;;;;;5013734;28;20176;-79
2022/07/31 01:15:20;;;;;;;5.32;4.05;;;18.10;99.90;;;;;;5014590;28;20067;-78
2022/07/31 01:17:47;;;;;;;7.22;4.60;;;18.10;99.90;;;;;;4998450;28;20038;-78
2022/07/31 01:20:14;;;;;;;6.80;3.92;;;18.10;99.90;;;;;;5012752;28;20061;-78
2022/07/31 01:23:20;;;;;;;6.32;4.20;;;18.10;99.90;;;;;;5016342;28;20103;-77
2022/07/31 01:25:55;;;;;;;5.80;3.90;;;18.20;99.90;;;;;;5013926;28;20041;-77
2022/07/31 01:28:59;;;;;;;5.00;3.75;;;18.20;99.90;;;;;;4994935;28;20054;-77
2022/07/31 01:31:40;;;;;;;5.50;3.92;;;18.10;99.90;;;;;;5033253;28;20042;-79
2022/07/31 01:34:24;;;;;;;5.05;3.92;;;18.10;99.90;;;;;;5018994;28;20049;-79
2022/07/31 01:37:19;;;;;;;6.30;3.90;;;18.10;99.90;;;;;;5016862;28;20131;-79
2022/07/31 01:40:01;;;;;;;5.57;4.13;;;18.20;99.90;;;;;;5013761;28;20049;-77
2022/07/31 01:42:29;;;;;;;6.68;4.82;;;18.10;99.90;;;;;;5017696;28;20069;-77
2022/07/31 01:44:58;;;;;;;5.88;4.03;;;18.10;99.90;;;;;;5001752;28;20041;-78
2022/07/31 01:47:26;;;;;;;6.03;3.90;;;18.20;99.90;;;;;;5013545;28;20038;-77
2022/07/31 01:49:54;;;;;;;5.72;4.22;;;18.10;99.90;;;;;;5030489;28;20551;-78
2022/07/31 01:52:24;;;;;;;6.00;3.95;;;18.10;99.90;;;;;;4997103;28;20088;-78
2022/07/31 01:54:51;;;;;;;5.47;4.07;;;18.20;99.90;;;;;;5012576;28;20426;-79
2022/07/31 01:57:20;;;;;;;7.90;4.93;;;18.20;99.90;;;;;;4997473;28;20475;-78
2022/07/31 01:59:47;;;;;;;6.25;4.13;;;18.10;99.90;;;;;;4992626;28;20050;-79
2022/07/31 02:02:15;;;;;;;6.25;3.70;;;18.20;99.90;;;;;;5020664;28;20050;-78
2022/07/31 02:04:41;;;;;;;8.05;4.03;;;18.10;99.90;;;;;;5018056;28;20121;-76
2022/07/31 02:07:07;;;;;;;6.47;4.05;;;18.20;99.90;;;;;;5022936;28;20059;-77
2022/07/31 02:09:34;;;;;;;6.70;4.00;;;18.20;99.90;;;;;;5017948;28;20497;-76
2022/07/31 02:12:01;;;;;;;6.38;4.05;;;18.20;99.90;;;;;;5006190;28;20077;-77
2022/07/31 02:14:28;;;;;;;7.15;4.10;;;18.20;99.90;;;;;;5012858;28;20140;-77
2022/07/31 02:17:01;;;;;;;5.88;4.18;;;18.20;99.90;;;;;;5017720;28;20045;-77
2022/07/31 02:19:28;;;;;;;5.47;4.55;;;18.20;99.90;;;;;;5018973;28;20077;-77
2022/07/31 02:21:54;;;;;;;5.88;4.40;;;18.20;99.90;;;;;;5015145;28;20045;-77
2022/07/31 02:24:21;;;;;;;6.28;3.85;;;18.20;99.90;;;;;;5021636;28;20680;-77
2022/07/31 02:26:47;;;;;;;9.23;4.47;;;18.20;99.90;;;;;;4994309;28;20045;-77
2022/07/31 02:29:17;;;;;;;7.00;4.60;;;18.20;99.90;;;;;;5023030;28;20056;-77
2022/07/31 02:31:44;;;;;;;5.50;4.47;;;18.20;99.90;;;;;;4998270;28;20041;-78
2022/07/31 02:34:13;;;;;;;6.90;4.95;;;18.20;99.90;;;;;;4993671;28;20140;-78
2022/07/31 02:36:39;;;;;;;6.13;4.60;;;18.20;99.90;;;;;;5010493;28;20053;-78
2022/07/31 02:39:07;;;;;;;6.35;4.70;;;18.10;99.90;;;;;;5020536;28;20506;-78
2022/07/31 02:41:35;;;;;;;7.20;5.10;;;18.10;99.90;;;;;;5018273;28;20072;-78
2022/07/31 02:44:01;;;;;;;5.72;4.05;;;18.10;99.90;;;;;;5019935;28;20121;-76
2022/07/31 02:46:28;;;;;;;5.40;4.40;;;18.10;99.90;;;;;;5015609;28;20500;-77
2022/07/31 02:48:55;;;;;;;6.82;4.80;;;18.10;99.90;;;;;;5015545;28;20045;-77
2022/07/31 02:51:22;;;;;;;5.88;4.90;;;18.10;99.90;;;;;;5019817;28;20045;-77
2022/07/31 02:53:48;;;;;;;8.57;4.97;;;18.10;99.90;;;;;;5002143;28;20057;-77
2022/07/31 02:56:15;;;;;;;4.88;4.38;;;18.10;99.90;;;;;;5019395;28;20045;-78
2022/07/31 02:58:42;;;;;;;6.28;4.75;;;18.10;99.90;;;;;;5011730;28;20052;-79
2022/07/31 03:01:08;;;;;;;5.30;4.75;;;18.10;99.90;;;;;;5012288;28;20041;-78
2022/07/31 03:03:34;;;;;;;6.03;5.03;;;18.00;99.90;;;;;;5007285;28;20053;-78
2022/07/31 03:06:00;;;;;;;8.45;4.57;;;18.10;99.90;;;;;;5021912;28;20049;-78
2022/07/31 03:08:27;;;;;;;6.70;5.00;;;18.00;99.90;;;;;;5012388;28;20057;-78
2022/07/31 03:10:56;;;;;;;6.90;4.95;;;18.00;99.90;;;;;;5003644;28;20928;-78
2022/07/31 03:13:24;;;;;;;5.47;4.60;;;18.00;99.90;;;;;;4975524;28;20045;-77
2022/07/31 03:15:51;;;;;;;7.07;5.22;;;18.00;99.90;;;;;;5020072;28;20048;-78
2022/07/31 03:18:20;;;;;;;6.65;4.68;;;18.00;99.90;;;;;;5019632;28;20037;-78
2022/07/31 03:20:50;;;;;;;7.30;4.75;;;18.00;99.90;;;;;;5020981;28;20095;-78
2022/07/31 03:23:19;;;;;;;8.93;4.85;;;18.00;99.90;;;;;;4984423;28;20037;-77
2022/07/31 03:25:49;;;;;;;5.97;4.45;;;18.00;99.90;;;;;;5005550;28;20046;-77
2022/07/31 03:28:18;;;;;;;6.35;4.60;;;18.00;99.90;;;;;;5000682;28;20045;-78
2022/07/31 03:30:45;;;;;;;6.60;4.10;;;18.00;99.90;;;;;;5006528;28;20571;-78
2022/07/31 03:33:11;;;;;;;6.28;5.18;;;18.00;99.90;;;;;;5019416;28;20049;-78
2022/07/31 03:35:36;;;;;;;7.03;5.10;;;17.90;99.90;;;;;;5008701;28;20404;-78
2022/07/31 03:38:04;;;;;;;6.55;5.07;;;17.90;99.90;;;;;;5002792;28;20370;-78
2022/07/31 03:40:30;;;;;;;8.48;4.72;;;17.90;99.90;;;;;;5016263;28;20124;-78
2022/07/31 03:42:58;;;;;;;5.32;4.47;;;17.90;99.90;;;;;;5015852;28;20068;-78
2022/07/31 03:45:25;;;;;;;6.85;5.30;;;17.90;99.90;;;;;;5019434;28;20061;-78
2022/07/31 03:47:51;;;;;;;6.72;5.05;;;17.90;99.90;;;;;;5019630;28;20120;-78
2022/07/31 03:50:17;;;;;;;6.28;5.00;;;17.90;99.90;;;;;;5040356;28;20053;-78
2022/07/31 03:52:47;;;;;;;8.52;5.97;;;17.90;99.90;;;;;;5018450;28;20516;-78
2022/07/31 03:55:13;;;;;;;6.53;5.50;;;17.80;99.90;;;;;;4997792;28;20097;-77
2022/07/31 03:57:41;;;;;;;12.30;5.50;;;17.80;99.90;;;;;;5022562;28;20053;-76
2022/07/31 04:00:09;;;;;;;9.95;5.60;;;17.80;99.90;;;;;;5022882;28;20045;-78
2022/07/31 04:02:34;;;;;;;6.70;5.22;;;17.70;99.90;;;;;;5021221;28;20085;-79
2022/07/31 04:05:00;;;;;;;10.38;6.20;;;17.70;99.90;;;;;;5021163;28;20479;-78
2022/07/31 04:07:26;;;;;;;7.78;5.47;;;17.70;99.90;;;;;;5007429;28;20712;-78
2022/07/31 04:09:52;;;;;;;6.80;5.82;;;17.70;99.90;;;;;;4976300;28;20052;-78
2022/07/31 04:12:18;;;;;;;8.73;6.20;;;17.70;99.90;;;;;;5034366;28;20069;-79
2022/07/31 04:14:44;;;;;;;8.15;6.28;;;17.70;99.90;;;;;;5003199;28;20077;-79
2022/07/31 04:17:10;;;;;;;5.93;5.28;;;17.70;99.90;;;;;;5021913;28;20029;-78
2022/07/31 04:19:36;;;;;;;8.00;5.72;;;17.70;99.90;;;;;;5006396;28;20061;-79
2022/07/31 04:22:03;;;;;;;6.40;5.43;;;17.70;99.90;;;;;;5018483;28;20057;-78
2022/07/31 04:24:29;;;;;;;7.70;5.85;;;17.80;99.90;;;;;;5004602;28;20045;-78
2022/07/31 04:26:55;;;;;;;7.72;5.80;;;17.70;99.90;;;;;;5004653;28;20060;-78
2022/07/31 04:29:21;;;;;;;7.70;5.95;;;17.80;99.90;;;;;;5017803;28;20088;-77
2022/07/31 04:31:47;;;;;;;6.63;5.20;;;17.80;99.90;;;;;;4970131;28;20085;-78
2022/07/31 04:34:13;;;;;;;6.78;5.55;;;17.80;99.90;;;;;;5007499;28;20057;-78
2022/07/31 04:36:39;;;;;;;7.28;5.47;;;17.80;99.90;;;;;;4996218;28;20045;-78
2022/07/31 04:39:05;;;;;;;6.43;5.18;;;17.80;99.90;;;;;;5020552;28;20034;-78
2022/07/31 04:41:31;;;;;;;6.63;5.90;;;17.80;99.90;;;;;;5015369;28;20045;-78
2022/07/31 04:43:57;;;;;;;7.28;5.80;;;17.80;99.90;;;;;;5025376;28;20103;-78
2022/07/31 04:46:26;;;;;;;7.47;6.32;;;17.80;99.90;;;;;;5029733;28;20041;-78
2022/07/31 04:48:52;;;;;;;7.07;5.47;;;17.80;99.90;;;;;;4983375;28;20111;-77
2022/07/31 04:51:22;;;;;;;6.80;5.72;;;17.80;99.90;;;;;;5002703;28;20046;-78
2022/07/31 04:53:49;;;;;;;7.05;5.40;;;17.80;99.90;;;;;;5020091;28;20422;-78
2022/07/31 04:57:01;;;;;;;7.65;5.82;;;17.80;99.90;;;;;;5006642;28;20501;-78
2022/07/31 04:59:05;;;;;;;7.47;6.15;;;17.80;99.90;;;;;;5017200;28;20050;-78
2022/07/31 05:01:31;;;;;;;6.78;5.65;;;17.80;99.90;;;;;;4999940;28;20057;-78
2022/07/31 05:03:57;;;;;;;8.20;6.30;;;17.80;99.90;;;;;;5006040;28;20053;-78
2022/07/31 05:06:34;;;;;;;6.43;5.82;;;17.80;99.90;;;;;;5005685;28;20103;-78
2022/07/31 05:09:01;;;;;;;9.95;5.50;;;17.80;99.90;;;;;;5007172;28;20038;-78
2022/07/31 05:11:27;;;;;;;9.20;6.05;;;17.80;99.90;;;;;;5016919;28;20054;-76
2022/07/31 05:13:55;;;;;;;6.22;5.63;;;17.80;99.90;;;;;;5016024;28;20048;-76
2022/07/31 05:16:22;;;;;;;8.18;6.22;;;17.80;99.90;;;;;;5022781;28;20056;-76
2022/07/31 05:18:50;;;;;;;6.07;5.40;;;17.80;99.90;;;;;;5004555;28;20037;-76
2022/07/31 05:21:17;;;;;;;7.53;6.30;;;17.80;99.90;;;;;;4982544;28;20053;-78
2022/07/31 05:23:45;;;;;;;7.15;5.60;;;17.90;99.90;;;;;;5015251;28;20057;-76
2022/07/31 05:26:12;;;;;;;7.93;5.97;;;17.90;99.90;;;;;;5006075;28;20041;-78
2022/07/31 05:28:39;;;;;;;7.28;6.10;;;17.90;99.90;;;;;;5018081;28;20077;-78
2022/07/31 05:31:06;;;;;;;7.53;5.90;;;18.00;99.90;;;;;;5020300;28;20041;-78
2022/07/31 05:33:32;;;;;;;7.18;6.47;;;18.00;99.90;;;;;;5005788;28;20504;-78
2022/07/31 05:35:59;;;;;;;8.00;6.45;;;18.00;99.90;;;;;;5009727;28;20045;-77
2022/07/31 05:38:25;;;;;;;8.57;6.45;;;18.10;99.90;;;;;;5034105;28;20041;-78
2022/07/31 05:40:52;;;;;;;9.57;6.53;;;18.10;99.90;;;;;;5011838;28;20168;-78
2022/07/31 05:43:17;;;;;;;6.85;6.07;;;18.10;99.90;;;;;;5022020;28;20045;-77
2022/07/31 05:45:45;;;;;;;7.68;6.30;;;18.10;99.90;;;;;;5021823;28;20073;-78
2022/07/31 05:48:15;;;;;;;7.32;6.60;;;18.10;99.90;;;;;;5010782;28;20207;-78
2022/07/31 05:50:46;;;;;;;8.52;6.97;;;18.10;99.90;;;;;;5027571;28;20729;-76
2022/07/31 05:53:15;;;;;;;7.45;6.60;;;18.20;99.90;;;;;;5011293;28;20239;-76
2022/07/31 05:55:42;;;;;;;9.77;7.75;;;18.20;99.90;;;;;;5010747;28;20050;-76
2022/07/31 05:58:09;;;;;;;7.72;6.93;;;18.20;99.90;;;;;;5021375;28;20503;-76
2022/07/31 06:00:35;;;;;;;9.02;7.07;;;18.20;99.90;;;;;;4999541;28;20124;-76
2022/07/31 06:03:01;;;;;;;7.82;6.55;;;18.30;99.90;;;;;;5024164;28;20088;-76
2022/07/31 06:05:28;;;;;;;8.40;7.60;;;18.30;99.90;;;;;;5013951;28;20045;-78
2022/07/31 06:07:56;;;;;;;7.93;7.22;;;18.30;99.90;;;;;;5019689;28;20128;-77
2022/07/31 06:10:22;;;;;;;8.43;7.57;;;18.30;99.90;;;;;;5005141;28;20500;-77
2022/07/31 06:12:49;;;;;;;7.60;6.65;;;18.30;99.90;;;;;;5016009;28;20064;-78
2022/07/31 06:15:15;;;;;;;7.65;6.95;;;18.30;99.90;;;;;;5022157;28;20053;-77
2022/07/31 06:17:42;;;;;;;8.90;7.55;;;18.30;99.90;;;;;;5010099;28;20053;-78
2022/07/31 06:20:08;;;;;;;9.88;8.07;;;18.40;99.90;;;;;;5007473;28;20041;-78
2022/07/31 06:22:34;;;;;;;8.70;7.80;;;18.30;99.90;;;;;;5027103;28;20064;-78
2022/07/31 06:25:01;;;;;;;8.90;8.00;;;18.40;99.90;;;;;;5019703;28;20045;-78
2022/07/31 06:27:27;;;;;;;8.75;7.95;;;18.40;99.90;;;;;;5009363;28;20124;-77
2022/07/31 06:29:55;;;;;;;10.00;8.05;;;18.40;99.90;;;;;;5007694;28;20242;-78
2022/07/31 06:32:20;;;;;;;10.50;7.53;;;18.40;99.90;;;;;;5006772;28;20045;-78
2022/07/31 06:34:46;;;;;;;9.38;8.18;;;18.50;99.90;;;;;;4991484;28;20622;-78
2022/07/31 06:37:12;;;;;;;8.25;7.53;;;18.40;99.90;;;;;;5009455;28;20045;-77
2022/07/31 06:39:38;;;;;;;8.80;7.90;;;18.50;99.90;;;;;;4982000;28;20064;-78
2022/07/31 06:42:03;;;;;;;8.93;7.72;;;18.50;99.90;;;;;;5012966;28;20045;-77
2022/07/31 06:44:31;;;;;;;11.50;7.75;;;18.60;99.90;;;;;;4986137;28;20065;-77
2022/07/31 06:46:56;;;;;;;8.20;7.40;;;18.60;99.90;;;;;;5002115;28;20504;-78
2022/07/31 06:49:22;;;;;;;7.78;7.18;;;18.70;99.90;;;;;;5005887;28;20048;-78
2022/07/31 06:51:48;;;;;;;8.55;7.28;;;18.70;99.90;;;;;;4999579;28;20581;-79
2022/07/31 06:54:14;;;;;;;9.15;8.25;;;18.80;99.90;;;;;;4998970;28;20129;-76
2022/07/31 06:56:40;;;;;;;10.30;8.07;;;18.80;99.90;;;;;;4984484;28;20132;-76
2022/07/31 06:59:09;;;;;;;9.18;8.38;;;18.80;99.90;;;;;;5004484;28;20041;-76
2022/07/31 07:01:35;;;;;;;10.85;9.05;;;19.00;99.90;;;;;;5018885;28;20053;-76
2022/07/31 07:04:01;;;;;;;9.48;8.45;;;18.90;99.90;;;;;;5022683;28;20057;-77
2022/07/31 07:06:27;;;;;;;9.48;7.93;;;19.00;99.90;;;;;;5000001;28;20045;-78
2022/07/31 07:08:55;;;;;;;9.80;8.32;;;19.00;99.90;;;;;;5001564;28;20049;-76
2022/07/31 07:11:21;;;;;;;9.15;7.97;;;19.10;99.90;;;;;;5002124;28;20049;-76
2022/07/31 07:13:47;;;;;;;9.27;7.85;;;19.10;99.90;;;;;;5004944;28;20063;-76
2022/07/31 07:16:14;;;;;;;9.55;8.52;;;19.20;99.90;;;;;;5006857;28;20099;-76
2022/07/31 07:18:41;;;;;;;9.52;8.23;;;19.20;99.90;;;;;;5002828;28;20124;-78
2022/07/31 07:21:07;;;;;;;8.55;7.75;;;19.20;99.90;;;;;;5015548;28;20049;-78
2022/07/31 07:23:33;;;;;;;10.25;9.25;;;19.30;99.90;;;;;;5010845;28;20034;-78
2022/07/31 07:25:59;;;;;;;9.15;8.30;;;19.30;99.90;;;;;;5003321;28;20503;-78
2022/07/31 07:28:25;;;;;;;9.35;7.68;;;19.40;99.90;;;;;;4969807;28;20029;-78
2022/07/31 07:30:51;;;;;;;9.82;8.43;;;19.40;99.90;;;;;;5014338;28;20063;-78
2022/07/31 07:33:16;;;;;;;9.15;8.23;;;19.40;99.90;;;;;;4987146;28;20139;-78
2022/07/31 07:35:43;;;;;;;10.50;9.40;;;19.50;99.90;;;;;;5003671;28;20053;-78
2022/07/31 07:38:08;;;;;;;9.82;8.82;;;19.50;99.90;;;;;;5011027;28;20568;-78
2022/07/31 07:40:34;;;;;;;10.10;9.05;;;19.60;99.90;;;;;;5011767;28;20044;-78
2022/07/31 07:43:00;;;;;;;9.82;8.50;;;19.60;99.90;;;;;;5018712;28;20128;-77
2022/07/31 07:45:26;;;;;;;10.23;9.30;;;19.60;99.90;;;;;;5016277;28;20060;-77
2022/07/31 07:47:55;;;;;;;9.85;8.95;;;19.70;99.90;;;;;;4997737;28;20496;-78
2022/07/31 07:50:21;;;;;;;10.15;9.23;;;19.80;99.90;;;;;;5004965;28;20052;-78
2022/07/31 07:52:47;;;;;;;11.15;9.85;;;19.80;99.90;;;;;;4997358;28;20519;-77
2022/07/31 07:55:13;;;;;;;10.32;9.32;;;19.90;99.90;;;;;;5010052;28;20065;-78
2022/07/31 07:57:38;;;;;;;10.18;9.18;;;20.00;99.90;;;;;;4997704;28;20052;-77
2022/07/31 08:00:09;;;;;;;10.93;9.80;;;20.00;99.90;;;;;;4987865;28;20049;-77
2022/07/31 08:02:35;;;;;;;10.35;9.35;;;20.10;99.90;;;;;;5006052;28;20050;-77
2022/07/31 08:05:01;;;;;;;11.93;10.25;;;20.10;99.90;;;;;;4995935;28;20041;-77
2022/07/31 08:07:28;;;;;;;10.60;9.60;;;20.10;99.90;;;;;;4980729;28;20042;-76
2022/07/31 08:09:55;;;;;;;11.43;9.98;;;20.20;99.90;;;;;;5006435;28;20549;-76
2022/07/31 08:12:21;;;;;;;12.52;10.02;;;20.20;99.90;;;;;;4996120;28;20051;-77
2022/07/31 08:14:47;;;;;;;11.40;10.20;;;20.20;99.90;;;;;;4992413;28;20786;-75
2022/07/31 08:17:13;;;;;;;10.90;9.60;;;20.30;99.90;;;;;;5004090;28;20049;-75
2022/07/31 08:19:39;;;;;;;11.02;9.95;;;20.30;99.90;;;;;;4992037;28;20567;-76
2022/07/31 08:22:05;;;;;;;11.50;9.93;;;20.40;99.90;;;;;;5020192;28;20534;-75
2022/07/31 08:24:31;;;;;;;11.52;10.52;;;20.40;99.90;;;;;;4980939;28;20081;-75
2022/07/31 08:29:41;;;;;;;10.65;9.55;;;20.50;99.90;;;;;;5018608;28;20079;-75
2022/07/31 08:32:07;;;;;;;12.02;10.52;;;20.60;99.90;;;;;;5014210;28;20069;-75
2022/07/31 08:34:32;;;;;;;12.57;11.38;;;20.60;99.90;;;;;;4994381;28;20504;-75
2022/07/31 08:36:59;;;;;;;13.23;10.77;;;20.70;99.90;;;;;;5012154;28;20040;-76
2022/07/31 08:39:25;;;;;;;13.65;11.38;;;20.70;99.90;;;;;;5014093;28;20114;-78
2022/07/31 08:41:51;;;;;;;11.32;10.23;;;20.80;99.90;;;;;;5015643;28;20424;-77
2022/07/31 08:44:16;;;;;;;12.10;10.88;;;20.80;99.90;;;;;;4999611;28;20192;-77
2022/07/31 08:46:44;;;;;;;11.15;9.98;;;20.90;99.90;;;;;;4990928;28;20053;-77
2022/07/31 08:49:14;;;;;;;11.05;9.98;;;20.90;99.90;;;;;;5009168;28;20042;-76
2022/07/31 08:51:42;;;;;;;12.25;10.82;;;20.90;99.90;;;;;;5009789;28;20556;-75
2022/07/31 08:54:10;;;;;;;12.95;11.60;;;20.90;99.90;;;;;;4996226;28;20046;-76
2022/07/31 08:56:37;;;;;;;13.40;10.93;;;20.80;99.90;;;;;;4990742;28;20054;-76
2022/07/31 08:59:04;;;;;;;14.10;10.73;;;20.80;99.90;;;;;;5007515;28;20042;-76
2022/07/31 09:01:32;;;;;;;12.95;11.05;;;20.80;99.90;;;;;;4991278;28;20076;-77
2022/07/31 09:03:59;;;;;;;12.98;11.48;;;20.70;99.90;;;;;;4998681;28;20033;-76
2022/07/31 09:06:25;;;;;;;12.95;11.63;;;20.60;99.90;;;;;;5014687;28;20046;-76
2022/07/31 09:08:50;;;;;;;14.25;12.73;;;20.50;99.90;;;;;;5003766;28;20052;-77
2022/07/31 09:11:17;;;;;;;14.00;12.63;;;20.50;99.90;;;;;;4980485;28;20126;-78
2022/07/31 09:13:57;;;;;;;14.48;13.13;;;20.40;99.90;;;;;;4997556;28;20127;-78
2022/07/31 09:16:23;;;;;;;15.05;13.68;;;20.40;99.90;;;;;;5013097;28;20124;-78
2022/07/31 09:18:59;;;;;;;15.27;13.60;;;20.30;99.90;;;;;;5021359;28;20560;-78
2022/07/31 09:21:26;;;;;;;15.40;13.73;;;20.30;99.90;;;;;;5013502;28;20062;-76
2022/07/31 09:23:53;;;;;;;15.13;12.95;;;20.30;99.90;;;;;;5013764;28;20053;-75
2022/07/31 09:26:19;;;;;;;14.88;13.25;;;20.20;99.90;;;;;;4979985;28;20129;-75
2022/07/31 09:28:48;;;;;;;17.02;15.30;;;20.20;99.90;;;;;;5007192;28;20120;-75
2022/07/31 09:31:13;;;;;;;15.65;14.05;;;20.10;99.90;;;;;;5001797;28;20092;-75
2022/07/31 09:33:45;;;;;;;15.60;14.00;;;20.10;99.90;;;;;;5006127;28;20053;-76
2022/07/31 09:36:11;;;;;;;16.08;14.48;;;20.10;99.90;;;;;;4993327;28;20103;-75
2022/07/31 09:38:40;;;;;;;17.48;15.68;;;20.00;99.90;;;;;;5004462;28;20129;-75
2022/07/31 09:41:13;;;;;;;18.45;16.75;;;20.10;99.90;;;;;;5002274;28;20405;-76
2022/07/31 09:43:39;;;;;;;18.83;17.02;;;20.10;99.90;;;;;;5016976;28;20128;-75
2022/07/31 09:46:07;;;;;;;17.75;16.05;;;20.10;99.90;;;;;;4997731;28;20046;-76
2022/07/31 09:48:35;;;;;;;17.92;16.38;;;20.10;99.90;;;;;;5000877;28;20099;-75
2022/07/31 09:51:06;;;;;;;15.60;14.07;;;20.20;99.90;;;;;;5015994;28;20120;-75
2022/07/31 09:53:44;;;;;;;17.70;16.00;;;20.20;99.90;;;;;;4996147;28;20064;-75
2022/07/31 09:56:11;;;;;;;18.80;15.65;;;20.30;99.90;;;;;;5017465;28;20411;-75
2022/07/31 09:58:41;;;;;;;16.00;14.50;;;20.30;99.90;;;;;;4996493;28;20144;-75
2022/07/31 10:01:11;;;;;;;18.95;17.00;;;20.30;99.90;;;;;;4975171;28;20120;-75
2022/07/31 10:03:39;;;;;;;17.75;15.93;;;20.30;99.90;;;;;;5022288;28;20057;-75
2022/07/31 10:06:07;;;;;;;21.95;17.60;;;20.30;99.90;;;;;;5001396;28;20043;-75
2022/07/31 10:08:37;;;;;;;18.45;16.50;;;20.20;99.90;;;;;;5012873;28;20045;-75
2022/07/31 10:11:05;;;;;;;19.25;17.23;;;20.10;99.90;;;;;;5013746;28;20168;-74
2022/07/31 10:13:37;;;;;;;19.27;17.33;;;20.10;99.90;;;;;;5018400;28;20064;-74
2022/07/31 10:16:05;;;;;;;20.27;18.27;;;20.00;99.90;;;;;;5015260;28;20073;-74
2022/07/31 10:18:36;;;;;;;19.48;17.52;;;20.00;99.90;;;;;;5017358;28;20050;-74
2022/07/31 10:21:05;;;;;;;19.75;17.85;;;20.00;99.90;;;;;;5017786;28;20041;-74
2022/07/31 10:23:33;;;;;;;18.90;16.92;;;20.00;99.90;;;;;;4995687;28;20081;-74
2022/07/31 10:26:00;;;;;;;19.23;17.42;;;20.00;99.90;;;;;;5006901;28;20057;-75
2022/07/31 10:28:28;;;;;;;17.35;15.80;;;20.00;99.90;;;;;;5010341;28;20135;-75
2022/07/31 10:30:55;;;;;;;19.27;17.45;;;20.00;99.90;;;;;;5011696;28;20052;-74
2022/07/31 10:33:21;;;;;;;18.10;16.30;;;20.00;99.90;;;;;;5003481;28;20041;-75
2022/07/31 10:36:04;;;;;;;17.73;16.10;;;19.90;99.90;;;;;;5017029;28;20057;-75
2022/07/31 10:38:34;;;;;;;17.42;15.70;;;19.90;99.90;;;;;;5029505;28;20045;-75
2022/07/31 10:41:30;;;;;;;18.92;17.20;;;20.00;99.90;;;;;;5016801;28;20045;-75
2022/07/31 10:44:01;;;;;;;16.88;15.48;;;20.00;99.90;;;;;;4997912;28;20056;-75
2022/07/31 10:46:31;;;;;;;17.70;16.00;;;20.00;99.90;;;;;;5012616;28;20091;-75
2022/07/31 10:48:57;;;;;;;17.65;15.88;;;20.00;99.90;;;;;;5005988;28;20061;-75
2022/07/31 10:51:25;;;;;;;18.48;16.58;;;20.00;99.90;;;;;;5005897;28;20176;-75
2022/07/31 10:53:56;;;;;;;17.92;16.13;;;20.00;99.90;;;;;;5019175;28;20051;-76
2022/07/31 10:56:25;;;;;;;19.90;18.23;;;20.00;99.90;;;;;;4998105;28;20099;-76
2022/07/31 10:58:57;;;;;;;19.48;17.80;;;20.10;99.90;;;;;;5003995;28;20053;-75
2022/07/31 11:01:27;;;;;;;20.45;18.75;;;20.10;99.90;;;;;;5001349;28;20060;-76
2022/07/31 11:04:00;;;;;;;21.60;19.65;;;20.10;99.90;;;;;;5012309;28;20123;-76
2022/07/31 11:06:40;;;;;;;19.55;17.65;;;20.10;99.90;;;;;;5010395;28;20085;-76
2022/07/31 11:09:07;;;;;;;20.90;19.00;;;20.10;99.90;;;;;;5017322;28;20050;-75
2022/07/31 11:11:36;;;;;;;18.75;17.15;;;20.00;99.90;;;;;;4996024;28;20041;-75
2022/07/31 11:14:02;;;;;;;20.33;18.60;;;20.00;99.90;;;;;;5033623;28;20784;-75
2022/07/31 11:16:28;;;;;;;20.55;18.75;;;19.90;99.90;;;;;;5015926;28;20050;-76
2022/07/31 11:18:59;;;;;;;20.75;19.02;;;19.80;99.90;;;;;;5011899;28;20048;-75
2022/07/31 11:21:34;;;;;;;22.55;20.48;;;19.80;99.90;;;;;;4999980;28;20132;-75
2022/07/31 11:24:01;;;;;;;20.00;18.10;;;19.70;99.90;;;;;;5018367;28;20128;-74
2022/07/31 11:26:27;;;;;;;22.10;19.85;;;19.70;99.90;;;;;;4998941;28;20091;-74
2022/07/31 11:28:53;;;;;;;22.02;20.00;;;19.60;99.90;;;;;;5011943;28;20698;-74
2022/07/31 11:31:19;;;;;;;22.70;20.55;;;19.50;99.90;;;;;;4988916;28;20064;-73
2022/07/31 11:33:46;;;;;;;22.40;20.30;;;19.50;99.90;;;;;;4996934;28;20057;-74
2022/07/31 11:36:15;;;;;;;22.73;20.60;;;19.40;99.90;;;;;;5003986;28;20061;-73
2022/07/31 11:38:43;;;;;;;25.60;23.23;;;19.40;99.90;;;;;;5009026;28;20037;-74
2022/07/31 11:41:10;;;;;;;24.42;22.17;;;19.30;99.90;;;;;;5010942;28;20038;-73
2022/07/31 11:43:39;;;;;;;25.95;23.63;;;19.30;99.90;;;;;;5010978;28;20103;-73
2022/07/31 11:46:05;;;;;;;30.38;27.27;;;19.30;99.90;;;;;;4972797;28;20116;-73
2022/07/31 11:48:31;;;;;;;27.70;25.08;;;19.30;99.90;;;;;;5015833;28;20140;-74
2022/07/31 11:50:59;;;;;;;30.00;27.15;;;19.30;99.90;;;;;;4997545;28;20381;-73
2022/07/31 11:53:25;;;;;;;27.98;25.27;;;19.20;99.90;;;;;;5006033;28;20049;-73
2022/07/31 11:55:59;;;;;;;31.25;28.10;;;19.20;99.90;;;;;;4973329;28;20042;-73
2022/07/31 11:58:27;;;;;;;31.45;28.05;;;19.20;99.90;;;;;;5013379;28;20061;-74
2022/07/31 12:00:56;;;;;;;28.50;25.83;;;19.20;99.90;;;;;;5008521;28;20100;-74
2022/07/31 12:03:37;;;;;;;30.42;27.75;;;19.20;99.90;;;;;;5012989;28;20049;-74
2022/07/31 12:06:05;;;;;;;29.70;26.85;;;19.20;99.90;;;;;;5008635;28;20045;-74
2022/07/31 12:08:33;;;;;;;31.70;28.63;;;19.20;99.90;;;;;;5004024;28;20042;-74
2022/07/31 12:11:00;;;;;;;31.58;28.45;;;19.20;99.90;;;;;;4986145;28;20080;-74
2022/07/31 12:13:27;;;;;;;35.80;32.20;;;19.20;99.90;;;;;;5005836;28;20037;-75
2022/07/31 12:16:01;;;;;;;40.80;36.35;;;19.20;99.90;;;;;;5017697;28;20159;-75
2022/07/31 12:18:29;;;;;;;34.63;31.20;;;19.10;99.90;;;;;;5004801;28;20041;-75
2022/07/31 12:21:03;;;;;;;35.20;31.73;;;19.20;99.90;;;;;;5002676;28;20049;-75
2022/07/31 12:23:45;;;;;;;33.30;29.98;;;19.10;99.90;;;;;;4996856;28;20409;-74
2022/07/31 12:26:33;;;;;;;37.90;33.90;;;19.20;99.90;;;;;;5010048;28;20038;-74
2022/07/31 12:29:11;;;;;;;37.00;33.50;;;19.10;99.90;;;;;;5012897;28;20061;-74
2022/07/31 12:31:47;;;;;;;36.88;33.17;;;19.10;99.90;;;;;;5014738;28;20065;-74
2022/07/31 12:34:24;;;;;;;38.65;34.75;;;19.10;99.90;;;;;;4998868;28;20049;-75
2022/07/31 12:37:02;;;;;;;42.13;37.97;;;19.10;99.90;;;;;;5030885;28;20057;-74
2022/07/31 12:39:29;;;;;;;42.67;38.65;;;19.20;99.90;;;;;;5018429;28;20038;-75
2022/07/31 12:41:55;;;;;;;50.58;45.10;;;19.30;99.90;;;;;;5006967;28;20099;-76
2022/07/31 12:44:21;;;;;;;43.70;39.53;;;19.40;99.90;;;;;;4996497;28;20075;-75
2022/07/31 12:46:47;;;;;;;42.95;38.83;;;19.30;99.90;;;;;;5012994;28;20118;-75